sensor_id;sensor_type;location;lat;lon;timestamp;P1;durP1;ratioP1;P2;durP2;ratioP2
4646;SDS011;2336;47.822;7.564;2023-04-25T00:02:00;3.60;;;3.37;;
4646;SDS011;2336;47.822;7.564;2023-04-25T00:04:29;4.53;;;4.00;;
4646;SDS011;2336;47.822;7.564;2023-04-25T00:06:58;3.90;;;3.60;;
4646;SDS011;2336;47.822;7.564;2023-04-25T00:09:27;3.83;;;3.37;;
4646;SDS011;2336;47.822;7.564;2023-04-25T00:11:54;5.17;;;3.80;;
4646;SDS011;2336;47.822;7.564;2023-04-25T00:14:20;3.90;;;3.60;;
4646;SDS011;2336;47.822;7.564;2023-04-25T00:16:47;4.60;;;3.63;;
4646;SDS011;2336;47.822;7.564;2023-04-25T00:19:16;6.97;;;3.60;;
4646;SDS011;2336;47.822;7.564;2023-04-25T00:21:44;4.93;;;3.80;;
4646;SDS011;2336;47.822;7.564;2023-04-25T00:24:11;3.70;;;3.50;;
4646;SDS011;2336;47.822;7.564;2023-04-25T00:26:38;6.83;;;4.03;;
4646;SDS011;2336;47.822;7.564;2023-04-25T00:29:05;4.80;;;3.20;;
4646;SDS011;2336;47.822;7.564;2023-04-25T00:31:32;10.50;;;3.97;;
4646;SDS011;2336;47.822;7.564;2023-04-25T00:33:59;4.13;;;3.83;;
4646;SDS011;2336;47.822;7.564;2023-04-25T00:36:25;3.73;;;3.53;;
4646;SDS011;2336;47.822;7.564;2023-04-25T00:38:54;4.13;;;3.83;;
4646;SDS011;2336;47.822;7.564;2023-04-25T00:41:20;4.17;;;3.70;;
4646;SDS011;2336;47.822;7.564;2023-04-25T00:43:48;5.53;;;4.07;;
4646;SDS011;2336;47.822;7.564;2023-04-25T00:46:14;4.73;;;3.93;;
4646;SDS011;2336;47.822;7.564;2023-04-25T00:48:41;3.97;;;3.67;;
4646;SDS011;2336;47.822;7.564;2023-04-25T00:51:08;4.57;;;3.70;;
4646;SDS011;2336;47.822;7.564;2023-04-25T00:53:39;4.33;;;3.93;;
4646;SDS011;2336;47.822;7.564;2023-04-25T00:56:07;4.83;;;4.27;;
4646;SDS011;2336;47.822;7.564;2023-04-25T00:58:34;4.90;;;3.70;;
4646;SDS011;2336;47.822;7.564;2023-04-25T01:01:02;3.87;;;3.60;;
4646;SDS011;2336;47.822;7.564;2023-04-25T01:03:29;6.00;;;3.67;;
4646;SDS011;2336;47.822;7.564;2023-04-25T01:06:00;4.30;;;3.90;;
4646;SDS011;2336;47.822;7.564;2023-04-25T01:08:27;3.90;;;3.60;;
4646;SDS011;2336;47.822;7.564;2023-04-25T01:10:55;4.57;;;4.07;;
4646;SDS011;2336;47.822;7.564;2023-04-25T01:13:23;4.33;;;3.90;;
4646;SDS011;2336;47.822;7.564;2023-04-25T01:15:50;3.93;;;3.73;;
4646;SDS011;2336;47.822;7.564;2023-04-25T01:18:16;7.90;;;4.20;;
4646;SDS011;2336;47.822;7.564;2023-04-25T01:20:45;4.30;;;3.90;;
4646;SDS011;2336;47.822;7.564;2023-04-25T01:23:13;4.10;;;3.70;;
4646;SDS011;2336;47.822;7.564;2023-04-25T01:25:41;4.10;;;3.80;;
4646;SDS011;2336;47.822;7.564;2023-04-25T01:28:08;4.90;;;4.43;;
4646;SDS011;2336;47.822;7.564;2023-04-25T01:30:35;5.57;;;4.10;;
4646;SDS011;2336;47.822;7.564;2023-04-25T01:33:02;4.43;;;4.17;;
4646;SDS011;2336;47.822;7.564;2023-04-25T01:35:30;4.80;;;4.50;;
4646;SDS011;2336;47.822;7.564;2023-04-25T01:37:57;4.50;;;4.20;;
4646;SDS011;2336;47.822;7.564;2023-04-25T01:40:25;6.67;;;4.33;;
4646;SDS011;2336;47.822;7.564;2023-04-25T01:42:53;4.00;;;3.70;;
4646;SDS011;2336;47.822;7.564;2023-04-25T01:45:20;4.43;;;4.23;;
4646;SDS011;2336;47.822;7.564;2023-04-25T01:47:47;8.87;;;4.43;;
4646;SDS011;2336;47.822;7.564;2023-04-25T01:50:15;5.40;;;4.83;;
4646;SDS011;2336;47.822;7.564;2023-04-25T01:52:43;5.53;;;4.20;;
4646;SDS011;2336;47.822;7.564;2023-04-25T01:55:10;7.57;;;4.13;;
4646;SDS011;2336;47.822;7.564;2023-04-25T01:57:38;7.20;;;3.80;;
4646;SDS011;2336;47.822;7.564;2023-04-25T02:00:05;4.70;;;4.40;;
4646;SDS011;2336;47.822;7.564;2023-04-25T02:02:34;4.87;;;4.20;;
4646;SDS011;2336;47.822;7.564;2023-04-25T02:05:00;5.80;;;5.30;;
4646;SDS011;2336;47.822;7.564;2023-04-25T02:07:27;8.73;;;5.07;;
4646;SDS011;2336;47.822;7.564;2023-04-25T02:09:54;8.07;;;5.00;;
4646;SDS011;2336;47.822;7.564;2023-04-25T02:12:21;5.70;;;5.10;;
4646;SDS011;2336;47.822;7.564;2023-04-25T02:14:49;7.97;;;5.27;;
4646;SDS011;2336;47.822;7.564;2023-04-25T02:17:15;5.23;;;4.70;;
4646;SDS011;2336;47.822;7.564;2023-04-25T02:19:42;6.83;;;5.20;;
4646;SDS011;2336;47.822;7.564;2023-04-25T02:22:09;6.17;;;5.00;;
4646;SDS011;2336;47.822;7.564;2023-04-25T02:24:36;10.20;;;5.80;;
4646;SDS011;2336;47.822;7.564;2023-04-25T02:27:03;5.17;;;4.77;;
4646;SDS011;2336;47.822;7.564;2023-04-25T02:29:30;5.33;;;4.83;;
4646;SDS011;2336;47.822;7.564;2023-04-25T02:31:58;8.40;;;5.10;;
4646;SDS011;2336;47.822;7.564;2023-04-25T02:34:25;6.60;;;4.90;;
4646;SDS011;2336;47.822;7.564;2023-04-25T02:36:51;5.27;;;4.87;;
4646;SDS011;2336;47.822;7.564;2023-04-25T02:39:18;5.90;;;4.77;;
4646;SDS011;2336;47.822;7.564;2023-04-25T02:41:47;6.80;;;5.33;;
4646;SDS011;2336;47.822;7.564;2023-04-25T02:44:13;8.20;;;5.07;;
4646;SDS011;2336;47.822;7.564;2023-04-25T02:46:40;5.27;;;4.90;;
4646;SDS011;2336;47.822;7.564;2023-04-25T02:49:08;5.93;;;5.37;;
4646;SDS011;2336;47.822;7.564;2023-04-25T02:51:35;10.57;;;5.60;;
4646;SDS011;2336;47.822;7.564;2023-04-25T02:54:02;5.93;;;4.93;;
4646;SDS011;2336;47.822;7.564;2023-04-25T02:56:29;6.90;;;5.40;;
4646;SDS011;2336;47.822;7.564;2023-04-25T02:58:55;7.57;;;5.70;;
4646;SDS011;2336;47.822;7.564;2023-04-25T03:01:22;5.17;;;4.70;;
4646;SDS011;2336;47.822;7.564;2023-04-25T03:03:49;7.20;;;5.20;;
4646;SDS011;2336;47.822;7.564;2023-04-25T03:06:17;4.43;;;4.13;;
4646;SDS011;2336;47.822;7.564;2023-04-25T03:08:43;5.53;;;5.03;;
4646;SDS011;2336;47.822;7.564;2023-04-25T03:11:10;6.63;;;4.57;;
4646;SDS011;2336;47.822;7.564;2023-04-25T03:13:37;7.63;;;5.40;;
4646;SDS011;2336;47.822;7.564;2023-04-25T03:16:04;6.60;;;5.53;;
4646;SDS011;2336;47.822;7.564;2023-04-25T03:18:31;5.73;;;4.80;;
4646;SDS011;2336;47.822;7.564;2023-04-25T03:20:58;6.97;;;5.10;;
4646;SDS011;2336;47.822;7.564;2023-04-25T03:23:26;5.40;;;5.00;;
4646;SDS011;2336;47.822;7.564;2023-04-25T03:25:52;7.83;;;5.10;;
4646;SDS011;2336;47.822;7.564;2023-04-25T03:28:19;6.77;;;4.73;;
4646;SDS011;2336;47.822;7.564;2023-04-25T03:30:46;5.67;;;4.77;;
4646;SDS011;2336;47.822;7.564;2023-04-25T03:33:12;5.23;;;4.73;;
4646;SDS011;2336;47.822;7.564;2023-04-25T03:35:39;4.60;;;4.20;;
4646;SDS011;2336;47.822;7.564;2023-04-25T03:38:07;6.30;;;4.60;;
4646;SDS011;2336;47.822;7.564;2023-04-25T03:40:35;5.40;;;4.87;;
4646;SDS011;2336;47.822;7.564;2023-04-25T03:43:02;5.67;;;5.07;;
4646;SDS011;2336;47.822;7.564;2023-04-25T03:45:29;5.80;;;4.90;;
4646;SDS011;2336;47.822;7.564;2023-04-25T03:47:55;4.83;;;4.53;;
4646;SDS011;2336;47.822;7.564;2023-04-25T03:50:22;3.80;;;3.60;;
4646;SDS011;2336;47.822;7.564;2023-04-25T03:52:49;4.70;;;4.40;;
4646;SDS011;2336;47.822;7.564;2023-04-25T03:55:15;4.80;;;4.03;;
4646;SDS011;2336;47.822;7.564;2023-04-25T03:57:43;4.20;;;3.90;;
4646;SDS011;2336;47.822;7.564;2023-04-25T04:00:11;4.90;;;4.37;;
4646;SDS011;2336;47.822;7.564;2023-04-25T04:02:39;5.20;;;4.50;;
4646;SDS011;2336;47.822;7.564;2023-04-25T04:05:05;4.37;;;3.97;;
4646;SDS011;2336;47.822;7.564;2023-04-25T04:07:33;8.33;;;4.40;;
4646;SDS011;2336;47.822;7.564;2023-04-25T04:10:05;4.50;;;3.90;;
4646;SDS011;2336;47.822;7.564;2023-04-25T04:12:32;4.97;;;3.60;;
4646;SDS011;2336;47.822;7.564;2023-04-25T04:15:00;5.43;;;3.50;;
4646;SDS011;2336;47.822;7.564;2023-04-25T04:17:28;4.47;;;4.07;;
4646;SDS011;2336;47.822;7.564;2023-04-25T04:19:55;8.40;;;4.63;;
4646;SDS011;2336;47.822;7.564;2023-04-25T04:22:22;4.63;;;3.90;;
4646;SDS011;2336;47.822;7.564;2023-04-25T04:24:49;4.17;;;3.80;;
4646;SDS011;2336;47.822;7.564;2023-04-25T04:27:17;7.83;;;4.00;;
4646;SDS011;2336;47.822;7.564;2023-04-25T04:29:44;8.00;;;3.83;;
4646;SDS011;2336;47.822;7.564;2023-04-25T04:32:13;5.57;;;3.97;;
4646;SDS011;2336;47.822;7.564;2023-04-25T04:34:40;3.50;;;3.30;;
4646;SDS011;2336;47.822;7.564;2023-04-25T04:37:07;4.13;;;3.60;;
4646;SDS011;2336;47.822;7.564;2023-04-25T04:39:34;4.00;;;3.50;;
4646;SDS011;2336;47.822;7.564;2023-04-25T04:42:01;5.47;;;4.00;;
4646;SDS011;2336;47.822;7.564;2023-04-25T04:44:30;4.30;;;4.00;;
4646;SDS011;2336;47.822;7.564;2023-04-25T04:46:57;5.63;;;4.33;;
4646;SDS011;2336;47.822;7.564;2023-04-25T04:49:25;8.57;;;4.30;;
4646;SDS011;2336;47.822;7.564;2023-04-25T04:51:52;3.87;;;3.57;;
4646;SDS011;2336;47.822;7.564;2023-04-25T04:54:19;3.20;;;2.90;;
4646;SDS011;2336;47.822;7.564;2023-04-25T04:56:46;3.20;;;3.00;;
4646;SDS011;2336;47.822;7.564;2023-04-25T04:59:13;2.80;;;2.67;;
4646;SDS011;2336;47.822;7.564;2023-04-25T05:01:40;2.40;;;2.23;;
4646;SDS011;2336;47.822;7.564;2023-04-25T05:04:07;2.07;;;1.97;;
4646;SDS011;2336;47.822;7.564;2023-04-25T05:06:35;2.43;;;2.23;;
4646;SDS011;2336;47.822;7.564;2023-04-25T05:09:01;4.60;;;2.70;;
4646;SDS011;2336;47.822;7.564;2023-04-25T05:11:28;5.63;;;3.50;;
4646;SDS011;2336;47.822;7.564;2023-04-25T05:13:55;3.20;;;2.90;;
4646;SDS011;2336;47.822;7.564;2023-04-25T05:16:22;2.10;;;2.00;;
4646;SDS011;2336;47.822;7.564;2023-04-25T05:18:48;7.00;;;6.33;;
4646;SDS011;2336;47.822;7.564;2023-04-25T05:21:15;10.97;;;9.83;;
4646;SDS011;2336;47.822;7.564;2023-04-25T05:23:43;1.60;;;1.50;;
4646;SDS011;2336;47.822;7.564;2023-04-25T05:26:10;2.67;;;2.57;;
4646;SDS011;2336;47.822;7.564;2023-04-25T05:28:38;19.07;;;14.00;;
4646;SDS011;2336;47.822;7.564;2023-04-25T05:31:05;2.60;;;1.93;;
4646;SDS011;2336;47.822;7.564;2023-04-25T05:33:32;2.40;;;1.67;;
4646;SDS011;2336;47.822;7.564;2023-04-25T05:35:59;3.90;;;1.60;;
4646;SDS011;2336;47.822;7.564;2023-04-25T05:38:26;1.70;;;1.70;;
4646;SDS011;2336;47.822;7.564;2023-04-25T05:40:54;3.67;;;3.33;;
4646;SDS011;2336;47.822;7.564;2023-04-25T05:43:21;3.03;;;2.93;;
4646;SDS011;2336;47.822;7.564;2023-04-25T05:45:47;2.30;;;2.20;;
4646;SDS011;2336;47.822;7.564;2023-04-25T05:48:14;2.20;;;2.10;;
4646;SDS011;2336;47.822;7.564;2023-04-25T05:50:41;2.43;;;2.33;;
4646;SDS011;2336;47.822;7.564;2023-04-25T05:53:08;2.10;;;2.00;;
4646;SDS011;2336;47.822;7.564;2023-04-25T05:55:35;3.47;;;1.93;;
4646;SDS011;2336;47.822;7.564;2023-04-25T05:58:04;2.10;;;1.90;;
4646;SDS011;2336;47.822;7.564;2023-04-25T06:00:31;2.83;;;2.50;;
4646;SDS011;2336;47.822;7.564;2023-04-25T06:02:58;2.37;;;2.27;;
4646;SDS011;2336;47.822;7.564;2023-04-25T06:05:25;4.97;;;2.53;;
4646;SDS011;2336;47.822;7.564;2023-04-25T06:07:51;2.70;;;1.77;;
4646;SDS011;2336;47.822;7.564;2023-04-25T06:10:18;4.53;;;2.10;;
4646;SDS011;2336;47.822;7.564;2023-04-25T06:12:45;4.40;;;1.77;;
4646;SDS011;2336;47.822;7.564;2023-04-25T06:15:13;2.00;;;1.90;;
4646;SDS011;2336;47.822;7.564;2023-04-25T06:17:40;1.80;;;1.80;;
4646;SDS011;2336;47.822;7.564;2023-04-25T06:20:08;3.83;;;3.57;;
4646;SDS011;2336;47.822;7.564;2023-04-25T06:22:35;4.30;;;4.10;;
4646;SDS011;2336;47.822;7.564;2023-04-25T06:25:02;3.60;;;3.30;;
4646;SDS011;2336;47.822;7.564;2023-04-25T06:27:29;4.63;;;2.70;;
4646;SDS011;2336;47.822;7.564;2023-04-25T06:29:56;3.30;;;3.10;;
4646;SDS011;2336;47.822;7.564;2023-04-25T06:32:24;2.60;;;2.50;;
4646;SDS011;2336;47.822;7.564;2023-04-25T06:34:52;2.87;;;2.67;;
4646;SDS011;2336;47.822;7.564;2023-04-25T06:37:19;3.20;;;2.93;;
4646;SDS011;2336;47.822;7.564;2023-04-25T06:39:46;2.80;;;2.70;;
4646;SDS011;2336;47.822;7.564;2023-04-25T06:42:12;3.00;;;2.90;;
4646;SDS011;2336;47.822;7.564;2023-04-25T06:44:39;4.20;;;2.97;;
4646;SDS011;2336;47.822;7.564;2023-04-25T06:47:06;3.87;;;3.53;;
4646;SDS011;2336;47.822;7.564;2023-04-25T06:49:34;3.27;;;2.97;;
4646;SDS011;2336;47.822;7.564;2023-04-25T06:52:01;3.77;;;2.50;;
4646;SDS011;2336;47.822;7.564;2023-04-25T06:54:27;6.10;;;2.30;;
4646;SDS011;2336;47.822;7.564;2023-04-25T06:56:54;2.73;;;2.50;;
4646;SDS011;2336;47.822;7.564;2023-04-25T06:59:22;3.00;;;2.80;;
4646;SDS011;2336;47.822;7.564;2023-04-25T07:01:48;2.87;;;2.67;;
4646;SDS011;2336;47.822;7.564;2023-04-25T07:04:16;4.23;;;3.00;;
4646;SDS011;2336;47.822;7.564;2023-04-25T07:06:44;3.53;;;3.23;;
4646;SDS011;2336;47.822;7.564;2023-04-25T07:09:12;4.10;;;2.97;;
4646;SDS011;2336;47.822;7.564;2023-04-25T07:11:39;4.00;;;3.00;;
4646;SDS011;2336;47.822;7.564;2023-04-25T07:14:06;3.43;;;3.13;;
4646;SDS011;2336;47.822;7.564;2023-04-25T07:16:32;2.90;;;2.63;;
4646;SDS011;2336;47.822;7.564;2023-04-25T07:18:59;3.90;;;3.60;;
4646;SDS011;2336;47.822;7.564;2023-04-25T07:21:26;8.30;;;3.20;;
4646;SDS011;2336;47.822;7.564;2023-04-25T07:23:54;4.20;;;3.50;;
4646;SDS011;2336;47.822;7.564;2023-04-25T07:26:20;11.63;;;4.00;;
4646;SDS011;2336;47.822;7.564;2023-04-25T07:28:47;5.33;;;3.97;;
4646;SDS011;2336;47.822;7.564;2023-04-25T07:31:16;4.00;;;3.70;;
4646;SDS011;2336;47.822;7.564;2023-04-25T07:33:43;3.27;;;3.17;;
4646;SDS011;2336;47.822;7.564;2023-04-25T07:36:09;4.33;;;3.00;;
4646;SDS011;2336;47.822;7.564;2023-04-25T07:38:37;3.93;;;3.27;;
4646;SDS011;2336;47.822;7.564;2023-04-25T07:41:05;2.87;;;2.70;;
4646;SDS011;2336;47.822;7.564;2023-04-25T07:43:32;3.57;;;3.30;;
4646;SDS011;2336;47.822;7.564;2023-04-25T07:45:58;2.90;;;2.80;;
4646;SDS011;2336;47.822;7.564;2023-04-25T07:48:25;3.80;;;2.30;;
4646;SDS011;2336;47.822;7.564;2023-04-25T07:50:52;2.87;;;2.77;;
4646;SDS011;2336;47.822;7.564;2023-04-25T07:53:19;2.57;;;2.47;;
4646;SDS011;2336;47.822;7.564;2023-04-25T07:55:45;2.57;;;2.47;;
4646;SDS011;2336;47.822;7.564;2023-04-25T07:58:13;2.57;;;2.47;;
4646;SDS011;2336;47.822;7.564;2023-04-25T08:00:40;2.10;;;2.03;;
4646;SDS011;2336;47.822;7.564;2023-04-25T08:03:09;2.37;;;2.30;;
4646;SDS011;2336;47.822;7.564;2023-04-25T08:05:35;2.33;;;2.20;;
4646;SDS011;2336;47.822;7.564;2023-04-25T08:08:02;2.70;;;2.60;;
4646;SDS011;2336;47.822;7.564;2023-04-25T08:10:31;1.87;;;1.87;;
4646;SDS011;2336;47.822;7.564;2023-04-25T08:12:58;2.43;;;2.33;;
4646;SDS011;2336;47.822;7.564;2023-04-25T08:15:26;2.53;;;2.40;;
4646;SDS011;2336;47.822;7.564;2023-04-25T08:17:53;2.50;;;2.40;;
4646;SDS011;2336;47.822;7.564;2023-04-25T08:20:19;2.63;;;2.53;;
4646;SDS011;2336;47.822;7.564;2023-04-25T08:22:46;1.80;;;1.80;;
4646;SDS011;2336;47.822;7.564;2023-04-25T08:25:14;1.80;;;1.80;;
4646;SDS011;2336;47.822;7.564;2023-04-25T08:27:40;1.60;;;1.50;;
4646;SDS011;2336;47.822;7.564;2023-04-25T08:30:07;1.70;;;1.70;;
4646;SDS011;2336;47.822;7.564;2023-04-25T08:32:36;1.60;;;1.60;;
4646;SDS011;2336;47.822;7.564;2023-04-25T08:35:04;1.90;;;1.80;;
4646;SDS011;2336;47.822;7.564;2023-04-25T08:37:31;1.80;;;1.80;;
4646;SDS011;2336;47.822;7.564;2023-04-25T08:39:58;2.03;;;1.97;;
4646;SDS011;2336;47.822;7.564;2023-04-25T08:42:26;2.00;;;1.80;;
4646;SDS011;2336;47.822;7.564;2023-04-25T08:44:54;1.33;;;1.33;;
4646;SDS011;2336;47.822;7.564;2023-04-25T08:47:21;1.73;;;1.63;;
4646;SDS011;2336;47.822;7.564;2023-04-25T08:49:50;1.20;;;1.20;;
4646;SDS011;2336;47.822;7.564;2023-04-25T08:52:20;0.90;;;0.90;;
4646;SDS011;2336;47.822;7.564;2023-04-25T08:54:48;0.80;;;0.80;;
4646;SDS011;2336;47.822;7.564;2023-04-25T08:57:15;0.80;;;0.80;;
4646;SDS011;2336;47.822;7.564;2023-04-25T08:59:43;1.07;;;0.60;;
4646;SDS011;2336;47.822;7.564;2023-04-25T09:02:11;0.70;;;0.70;;
4646;SDS011;2336;47.822;7.564;2023-04-25T09:04:42;0.70;;;0.70;;
4646;SDS011;2336;47.822;7.564;2023-04-25T09:07:10;0.50;;;0.50;;
4646;SDS011;2336;47.822;7.564;2023-04-25T09:09:40;0.50;;;0.50;;
4646;SDS011;2336;47.822;7.564;2023-04-25T09:12:07;0.70;;;0.70;;
4646;SDS011;2336;47.822;7.564;2023-04-25T09:14:34;0.80;;;0.80;;
4646;SDS011;2336;47.822;7.564;2023-04-25T09:17:01;1.60;;;1.10;;
4646;SDS011;2336;47.822;7.564;2023-04-25T09:19:30;0.90;;;0.90;;
4646;SDS011;2336;47.822;7.564;2023-04-25T09:21:58;1.57;;;1.47;;
4646;SDS011;2336;47.822;7.564;2023-04-25T09:24:31;0.90;;;0.90;;
4646;SDS011;2336;47.822;7.564;2023-04-25T09:26:58;1.67;;;1.40;;
4646;SDS011;2336;47.822;7.564;2023-04-25T09:29:29;6.00;;;2.80;;
4646;SDS011;2336;47.822;7.564;2023-04-25T09:32:16;2.03;;;1.87;;
4646;SDS011;2336;47.822;7.564;2023-04-25T09:34:46;0.70;;;0.70;;
4646;SDS011;2336;47.822;7.564;2023-04-25T09:37:17;0.60;;;0.60;;
4646;SDS011;2336;47.822;7.564;2023-04-25T09:39:47;0.67;;;0.67;;
4646;SDS011;2336;47.822;7.564;2023-04-25T09:42:14;0.70;;;0.70;;
4646;SDS011;2336;47.822;7.564;2023-04-25T09:44:42;0.70;;;0.70;;
4646;SDS011;2336;47.822;7.564;2023-04-25T09:47:10;0.70;;;0.70;;
4646;SDS011;2336;47.822;7.564;2023-04-25T09:49:38;0.80;;;0.80;;
4646;SDS011;2336;47.822;7.564;2023-04-25T09:52:07;3.07;;;2.90;;
4646;SDS011;2336;47.822;7.564;2023-04-25T09:54:34;2.77;;;2.67;;
4646;SDS011;2336;47.822;7.564;2023-04-25T09:57:03;2.57;;;1.43;;
4646;SDS011;2336;47.822;7.564;2023-04-25T09:59:38;1.53;;;1.53;;
4646;SDS011;2336;47.822;7.564;2023-04-25T10:02:08;2.20;;;1.80;;
4646;SDS011;2336;47.822;7.564;2023-04-25T10:04:36;1.47;;;1.47;;
4646;SDS011;2336;47.822;7.564;2023-04-25T10:07:05;6.63;;;3.00;;
4646;SDS011;2336;47.822;7.564;2023-04-25T10:09:33;2.70;;;2.60;;
4646;SDS011;2336;47.822;7.564;2023-04-25T10:12:03;2.60;;;2.50;;
4646;SDS011;2336;47.822;7.564;2023-04-25T10:14:32;2.33;;;2.23;;
4646;SDS011;2336;47.822;7.564;2023-04-25T10:16:59;3.00;;;2.90;;
4646;SDS011;2336;47.822;7.564;2023-04-25T10:19:27;2.33;;;2.17;;
4646;SDS011;2336;47.822;7.564;2023-04-25T10:21:55;2.00;;;1.90;;
4646;SDS011;2336;47.822;7.564;2023-04-25T10:24:30;2.10;;;2.10;;
4646;SDS011;2336;47.822;7.564;2023-04-25T10:26:57;2.70;;;2.60;;
4646;SDS011;2336;47.822;7.564;2023-04-25T10:29:26;2.03;;;1.93;;
4646;SDS011;2336;47.822;7.564;2023-04-25T10:31:52;2.20;;;2.10;;
4646;SDS011;2336;47.822;7.564;2023-04-25T10:34:23;1.53;;;1.53;;
4646;SDS011;2336;47.822;7.564;2023-04-25T10:36:51;1.83;;;1.73;;
4646;SDS011;2336;47.822;7.564;2023-04-25T10:39:22;1.50;;;1.50;;
4646;SDS011;2336;47.822;7.564;2023-04-25T10:41:53;1.23;;;1.23;;
4646;SDS011;2336;47.822;7.564;2023-04-25T10:44:22;1.30;;;1.30;;
4646;SDS011;2336;47.822;7.564;2023-04-25T10:46:50;2.80;;;1.10;;
4646;SDS011;2336;47.822;7.564;2023-04-25T10:49:32;1.00;;;1.00;;
4646;SDS011;2336;47.822;7.564;2023-04-25T10:52:16;0.90;;;0.90;;
4646;SDS011;2336;47.822;7.564;2023-04-25T10:54:48;1.00;;;1.00;;
4646;SDS011;2336;47.822;7.564;2023-04-25T10:57:27;2.50;;;1.23;;
4646;SDS011;2336;47.822;7.564;2023-04-25T10:59:57;1.37;;;1.37;;
4646;SDS011;2336;47.822;7.564;2023-04-25T11:02:27;1.53;;;1.53;;
4646;SDS011;2336;47.822;7.564;2023-04-25T11:04:54;4.03;;;3.83;;
4646;SDS011;2336;47.822;7.564;2023-04-25T11:07:23;3.30;;;1.40;;
4646;SDS011;2336;47.822;7.564;2023-04-25T11:09:57;1.00;;;0.90;;
4646;SDS011;2336;47.822;7.564;2023-04-25T11:12:27;0.90;;;0.90;;
4646;SDS011;2336;47.822;7.564;2023-04-25T11:14:58;1.37;;;1.00;;
4646;SDS011;2336;47.822;7.564;2023-04-25T11:17:27;1.13;;;1.13;;
4646;SDS011;2336;47.822;7.564;2023-04-25T11:19:54;1.03;;;1.03;;
4646;SDS011;2336;47.822;7.564;2023-04-25T11:22:22;3.17;;;2.00;;
4646;SDS011;2336;47.822;7.564;2023-04-25T11:24:49;1.80;;;1.80;;
4646;SDS011;2336;47.822;7.564;2023-04-25T11:27:15;1.50;;;1.50;;
4646;SDS011;2336;47.822;7.564;2023-04-25T11:29:42;3.23;;;1.87;;
4646;SDS011;2336;47.822;7.564;2023-04-25T11:32:09;1.63;;;1.37;;
4646;SDS011;2336;47.822;7.564;2023-04-25T11:34:37;1.77;;;1.60;;
4646;SDS011;2336;47.822;7.564;2023-04-25T11:37:04;1.97;;;1.83;;
4646;SDS011;2336;47.822;7.564;2023-04-25T11:39:31;2.20;;;2.00;;
4646;SDS011;2336;47.822;7.564;2023-04-25T11:41:58;1.97;;;1.87;;
4646;SDS011;2336;47.822;7.564;2023-04-25T11:44:26;1.67;;;1.30;;
4646;SDS011;2336;47.822;7.564;2023-04-25T11:46:54;1.57;;;1.57;;
4646;SDS011;2336;47.822;7.564;2023-04-25T11:49:21;1.73;;;1.63;;
4646;SDS011;2336;47.822;7.564;2023-04-25T11:51:51;5.73;;;4.70;;
4646;SDS011;2336;47.822;7.564;2023-04-25T11:54:17;1.57;;;1.57;;
4646;SDS011;2336;47.822;7.564;2023-04-25T11:56:44;2.07;;;1.87;;
4646;SDS011;2336;47.822;7.564;2023-04-25T11:59:12;2.47;;;2.27;;
4646;SDS011;2336;47.822;7.564;2023-04-25T12:01:41;3.30;;;3.10;;
4646;SDS011;2336;47.822;7.564;2023-04-25T12:04:14;2.00;;;1.90;;
4646;SDS011;2336;47.822;7.564;2023-04-25T12:06:43;1.43;;;1.40;;
4646;SDS011;2336;47.822;7.564;2023-04-25T12:09:13;1.50;;;1.40;;
4646;SDS011;2336;47.822;7.564;2023-04-25T12:11:42;1.30;;;1.07;;
4646;SDS011;2336;47.822;7.564;2023-04-25T12:14:10;1.00;;;1.00;;
4646;SDS011;2336;47.822;7.564;2023-04-25T12:16:41;1.30;;;1.20;;
4646;SDS011;2336;47.822;7.564;2023-04-25T12:19:08;1.20;;;1.20;;
4646;SDS011;2336;47.822;7.564;2023-04-25T12:21:36;1.67;;;1.57;;
4646;SDS011;2336;47.822;7.564;2023-04-25T12:24:10;1.33;;;1.10;;
4646;SDS011;2336;47.822;7.564;2023-04-25T12:26:49;1.20;;;1.20;;
4646;SDS011;2336;47.822;7.564;2023-04-25T12:29:17;1.60;;;1.50;;
4646;SDS011;2336;47.822;7.564;2023-04-25T12:31:48;1.20;;;1.20;;
4646;SDS011;2336;47.822;7.564;2023-04-25T12:34:16;1.10;;;1.10;;
4646;SDS011;2336;47.822;7.564;2023-04-25T12:36:43;1.80;;;1.70;;
4646;SDS011;2336;47.822;7.564;2023-04-25T12:39:14;1.10;;;1.00;;
4646;SDS011;2336;47.822;7.564;2023-04-25T12:41:41;1.73;;;1.20;;
4646;SDS011;2336;47.822;7.564;2023-04-25T12:44:09;1.33;;;1.33;;
4646;SDS011;2336;47.822;7.564;2023-04-25T12:46:36;2.30;;;1.63;;
4646;SDS011;2336;47.822;7.564;2023-04-25T12:49:03;2.00;;;1.90;;
4646;SDS011;2336;47.822;7.564;2023-04-25T12:51:31;3.23;;;2.43;;
4646;SDS011;2336;47.822;7.564;2023-04-25T12:53:57;4.10;;;3.70;;
4646;SDS011;2336;47.822;7.564;2023-04-25T12:56:24;3.77;;;3.63;;
4646;SDS011;2336;47.822;7.564;2023-04-25T12:58:51;5.33;;;4.90;;
4646;SDS011;2336;47.822;7.564;2023-04-25T13:01:20;2.97;;;2.87;;
4646;SDS011;2336;47.822;7.564;2023-04-25T13:03:46;1.87;;;1.87;;
4646;SDS011;2336;47.822;7.564;2023-04-25T13:06:13;1.70;;;1.70;;
4646;SDS011;2336;47.822;7.564;2023-04-25T13:08:41;2.30;;;2.20;;
4646;SDS011;2336;47.822;7.564;2023-04-25T13:11:08;2.03;;;2.03;;
4646;SDS011;2336;47.822;7.564;2023-04-25T13:13:35;4.27;;;2.43;;
4646;SDS011;2336;47.822;7.564;2023-04-25T13:16:01;1.53;;;1.40;;
4646;SDS011;2336;47.822;7.564;2023-04-25T13:18:30;1.73;;;1.63;;
4646;SDS011;2336;47.822;7.564;2023-04-25T13:20:58;1.63;;;1.53;;
4646;SDS011;2336;47.822;7.564;2023-04-25T13:23:26;1.53;;;1.43;;
4646;SDS011;2336;47.822;7.564;2023-04-25T13:25:54;1.60;;;1.60;;
4646;SDS011;2336;47.822;7.564;2023-04-25T13:28:22;1.40;;;1.30;;
4646;SDS011;2336;47.822;7.564;2023-04-25T13:30:49;1.50;;;1.50;;
4646;SDS011;2336;47.822;7.564;2023-04-25T13:33:16;1.30;;;1.30;;
4646;SDS011;2336;47.822;7.564;2023-04-25T13:35:44;1.03;;;1.03;;
4646;SDS011;2336;47.822;7.564;2023-04-25T13:38:18;0.97;;;0.97;;
4646;SDS011;2336;47.822;7.564;2023-04-25T13:40:45;0.90;;;0.90;;
4646;SDS011;2336;47.822;7.564;2023-04-25T13:43:12;0.80;;;0.80;;
4646;SDS011;2336;47.822;7.564;2023-04-25T13:45:39;1.17;;;1.17;;
4646;SDS011;2336;47.822;7.564;2023-04-25T13:48:05;2.03;;;1.83;;
4646;SDS011;2336;47.822;7.564;2023-04-25T13:50:32;1.70;;;1.37;;
4646;SDS011;2336;47.822;7.564;2023-04-25T13:53:00;1.63;;;1.53;;
4646;SDS011;2336;47.822;7.564;2023-04-25T13:55:27;1.53;;;1.53;;
4646;SDS011;2336;47.822;7.564;2023-04-25T13:57:54;2.10;;;2.10;;
4646;SDS011;2336;47.822;7.564;2023-04-25T14:00:20;1.80;;;1.77;;
4646;SDS011;2336;47.822;7.564;2023-04-25T14:02:47;1.43;;;1.30;;
4646;SDS011;2336;47.822;7.564;2023-04-25T14:05:14;1.80;;;1.70;;
4646;SDS011;2336;47.822;7.564;2023-04-25T14:07:41;2.00;;;1.90;;
4646;SDS011;2336;47.822;7.564;2023-04-25T14:10:09;2.37;;;2.20;;
4646;SDS011;2336;47.822;7.564;2023-04-25T14:12:36;2.57;;;2.47;;
4646;SDS011;2336;47.822;7.564;2023-04-25T14:15:03;2.53;;;2.33;;
4646;SDS011;2336;47.822;7.564;2023-04-25T14:17:31;2.40;;;2.30;;
4646;SDS011;2336;47.822;7.564;2023-04-25T14:19:58;2.43;;;2.20;;
4646;SDS011;2336;47.822;7.564;2023-04-25T14:22:24;1.57;;;1.57;;
4646;SDS011;2336;47.822;7.564;2023-04-25T14:24:51;2.03;;;1.93;;
4646;SDS011;2336;47.822;7.564;2023-04-25T14:27:19;1.73;;;1.73;;
4646;SDS011;2336;47.822;7.564;2023-04-25T14:29:46;1.60;;;1.60;;
4646;SDS011;2336;47.822;7.564;2023-04-25T14:32:13;2.27;;;1.83;;
4646;SDS011;2336;47.822;7.564;2023-04-25T14:34:40;2.27;;;2.17;;
4646;SDS011;2336;47.822;7.564;2023-04-25T14:37:07;1.83;;;1.73;;
4646;SDS011;2336;47.822;7.564;2023-04-25T14:39:34;2.20;;;2.00;;
4646;SDS011;2336;47.822;7.564;2023-04-25T14:42:01;1.77;;;1.67;;
4646;SDS011;2336;47.822;7.564;2023-04-25T14:44:29;1.63;;;1.50;;
4646;SDS011;2336;47.822;7.564;2023-04-25T14:46:56;1.43;;;1.40;;
4646;SDS011;2336;47.822;7.564;2023-04-25T14:49:23;1.90;;;1.77;;
4646;SDS011;2336;47.822;7.564;2023-04-25T14:51:49;2.27;;;2.00;;
4646;SDS011;2336;47.822;7.564;2023-04-25T14:54:16;3.23;;;3.00;;
4646;SDS011;2336;47.822;7.564;2023-04-25T14:56:43;1.80;;;1.80;;
4646;SDS011;2336;47.822;7.564;2023-04-25T14:59:09;2.50;;;2.40;;
4646;SDS011;2336;47.822;7.564;2023-04-25T15:01:37;2.07;;;2.07;;
4646;SDS011;2336;47.822;7.564;2023-04-25T15:04:05;2.13;;;2.03;;
4646;SDS011;2336;47.822;7.564;2023-04-25T15:06:32;3.10;;;2.83;;
4646;SDS011;2336;47.822;7.564;2023-04-25T15:08:59;8.20;;;4.50;;
4646;SDS011;2336;47.822;7.564;2023-04-25T15:11:26;2.40;;;2.30;;
4646;SDS011;2336;47.822;7.564;2023-04-25T15:13:53;2.10;;;2.00;;
4646;SDS011;2336;47.822;7.564;2023-04-25T15:16:20;1.93;;;1.93;;
4646;SDS011;2336;47.822;7.564;2023-04-25T15:18:48;2.20;;;2.10;;